Springvale, Ohio
Current Conditions -  °F | °C
As of 9:53 PM on Wednesday 26 Nov 2014 (Local Time) from KLUK Reporting Station
Clear Clear  
Wind Chill: 26°   Ceiling: Unl
Heat Index: 32°   Visibility: 9mi
Dew Point: 26°   Wind: 6mph
Humidity: 79%   Direction: 360°N
Pressure: 30.09"   Gusts: NA
Location:  39.23°N, 84.2394°W
Report Text: KLUK 270253Z 36005KT 9SM CLR 00/M03 A3009 RMK AO2 SLP192 T00001033 53008
Loading
Personal Weather Stations






























Interactive Weather Map New forecast layout! Learn more

10-Day Weather Forecast

Advertisements
Track Severe Weather on mobile